Aérodrome :
LOGIN :

S'inscrire | Disclaimer

   EN    FR    IT 

 










Légende :    VFR   VFR Marginal   IFR   IFR Intensif   IFR Très Intensif
Visi : 
Plafond : 
>= 8 km
>= 3000ft
5 à 8 km
1000 à 3000 ft
1500m à 5 km
500 à 1000 ft
800 à 1500m
200 à 500 ft
< 800m
< 200 ft
Symboles :   Orages  Brouillard  Fortes neiges  Fortes précipitations  Vent > 20 kt
SIGMETs :   Divers  Orages  Givrage  Turbulence  Onde Orograph.  Cendres Volcan.






- Altitude de l'aérodrome : 135 ft
- Code IATA : EDI


EGPH - Edinburgh

DERNIER METAR :
  • 171520Z 24012KT 9999 FEW018 06/03 Q1005

METARs EXPIRÉS :
  • 171450Z 24013KT 9999 BKN024 06/03 Q1005
  • 171420Z 24012KT 9999 BKN024 06/03 Q1005
  • 171350Z 23013KT 9999 FEW025 06/03 Q1004
  • 171320Z 24015KT 9999 FEW024 07/03 Q1004
  • 171250Z 23014KT 9999 FEW027 06/03 Q1004

TAF TAF EGPH
Valide du 17 à 12h jusqu'au 18 à 12h UTC


171058Z 1712/1812 24012KT 9999 FEW030
PROB30
TEMPO 1714/1718 25015G25KT 7000 SHRA BKN014
ATIS : +44 131 339 2823



MET'MAP, la Météo Aéronautique d'un coup d'oeil ! - Copyright ORBIFLY Décembre 2007 - Disclaimer

ORBIFLY MET'MAP TEAM :

Programmation & Développement : Alexandra Zaïnal
Sur une idée originale de : Baudouin d'Aumeries
Assistance à la programmation : Marc-Olivier Méhu
Soutien technique & logistique : Manuel Goepfert

Contact : metmap@orbifly.com




SOURCES & CREDITS :

   NOAA